Time;durP1;ratioP1;P1;durP2;ratioP2;P2;SDS_P1;SDS_P2;PMS_P1;PMS_P2;Temp;Humidity;BMP_temperature;BMP_pressure;BME280_temperature;BME280_humidity;BME280_pressure;Samples;Min_cycle;Max_cycle;Signal;HPM_P1;HPM_P2
2023/12/10 14:34:40;;;;;;;;;;;-0.80;99.90;;;;;;5073427;28;20245;-96
2023/12/10 14:37:06;;;;;;;;;;;-0.80;99.90;;;;;;5058404;28;20353;-95
2023/12/10 15:21:50;;;;;;;;;;;0.30;99.90;;;;;;4913646;29;19919;-94
2023/12/10 16:52:02;;;;;;;;;;;0.50;99.90;;;;;;4882972;29;19992;-95
2023/12/10 16:54:44;;;;;;;;;;;0.50;99.90;;;;;;4865793;29;19969;-96
2023/12/10 16:57:09;;;;;;;;;;;0.50;99.90;;;;;;4826444;29;19912;-95
2023/12/10 17:00:14;;;;;;;;;;;;;;;;;;;;;
2023/12/10 17:02:45;;;;;;;;;;;0.40;99.90;;;;;;4816572;29;19917;-96
2023/12/10 17:05:41;;;;;;;;;;;0.40;99.90;;;;;;4809838;29;20285;-96
2023/12/10 17:08:40;;;;;;;;;;;0.40;99.90;;;;;;4824141;29;20393;-95
2023/12/10 17:20:23;;;;;;;;;;;0.30;99.90;;;;;;4774774;30;19917;-95
2023/12/10 17:25:37;;;;;;;;;;;0.20;99.90;;;;;;4803077;29;19947;-94
2023/12/10 17:28:03;;;;;;;;;;;0.20;99.90;;;;;;4825447;29;19944;-95
2023/12/10 17:30:40;;;;;;;;;;;0.20;99.90;;;;;;4861484;29;19999;-94
2023/12/10 17:33:06;;;;;;;;;;;0.30;99.90;;;;;;4859307;29;19920;-95
2023/12/10 17:35:53;;;;;;;;;;;;;;;;;;;;;
2023/12/10 17:38:26;;;;;;;;;;;0.20;99.90;;;;;;4845229;29;19919;-95
2023/12/10 17:40:58;;;;;;;;;;;0.20;99.90;;;;;;4842096;29;19919;-94
2023/12/10 17:43:23;;;;;;;;;;;0.20;99.90;;;;;;4843796;29;19917;-93
2023/12/10 17:45:58;;;;;;;;;;;0.20;99.90;;;;;;4843113;29;19923;-95
2023/12/10 17:48:40;;;;;;;;;;;0.20;99.90;;;;;;4843344;29;19947;-95
2023/12/10 17:51:08;;;;;;;;;;;0.20;99.90;;;;;;4844008;29;19912;-95
2023/12/10 17:53:43;;;;;;;;;;;0.20;99.90;;;;;;4842674;29;19912;-95
2023/12/10 17:56:09;;;;;;;;;;;0.20;99.90;;;;;;4844293;29;19912;-93
2023/12/10 17:58:34;;;;;;;;;;;0.20;99.90;;;;;;4843712;29;20273;-93
2023/12/10 18:01:00;;;;;;;;;;;0.20;99.90;;;;;;4839218;29;19928;-92
2023/12/10 18:03:25;;;;;;;;;;;0.20;99.90;;;;;;4827535;29;19913;-92
2023/12/10 18:05:51;;;;;;;;;;;0.30;99.90;;;;;;4840433;29;19912;-93
2023/12/10 18:08:17;;;;;;;;;;;0.20;99.90;;;;;;4845595;29;19935;-93
2023/12/10 18:10:42;;;;;;;;;;;0.30;99.90;;;;;;4846785;29;19918;-95
2023/12/10 18:13:08;;;;;;;;;;;0.30;99.90;;;;;;4847412;29;19912;-96
2023/12/10 18:15:35;;;;;;;;;;;0.30;99.90;;;;;;4848445;29;19918;-95
2023/12/10 18:18:01;;;;;;;;;;;0.30;99.90;;;;;;4848356;29;19912;-96
2023/12/10 18:20:27;;;;;;;;;;;0.30;99.90;;;;;;4844562;29;20251;-95
2023/12/10 18:22:53;;;;;;;;;;;0.30;99.90;;;;;;4829173;29;20026;-94
2023/12/10 18:25:18;;;;;;;;;;;0.40;99.90;;;;;;4829807;29;19917;-95
2023/12/10 18:27:44;;;;;;;;;;;0.30;99.90;;;;;;4834475;29;19913;-95
2023/12/10 18:30:10;;;;;;;;;;;0.40;99.90;;;;;;4835368;29;20362;-94
2023/12/10 18:32:36;;;;;;;;;;;0.30;99.90;;;;;;4828115;29;19946;-96
2023/12/10 18:35:02;;;;;;;;;;;0.30;99.90;;;;;;4844716;29;19928;-95
2023/12/10 18:37:28;;;;;;;;;;;0.30;99.90;;;;;;4846864;29;20056;-96
2023/12/10 18:39:53;;;;;;;;;;;0.40;99.90;;;;;;4846417;29;19916;-94
2023/12/10 18:42:19;;;;;;;;;;;0.40;99.90;;;;;;4846023;29;19923;-95
2023/12/10 18:44:45;;;;;;;;;;;0.40;99.90;;;;;;4845881;29;19912;-96
2023/12/10 18:47:10;;;;;;;;;;;0.40;99.90;;;;;;4845746;29;19929;-95
2023/12/10 18:49:36;;;;;;;;;;;0.50;99.90;;;;;;4853261;29;20015;-94
2023/12/10 18:52:01;;;;;;;;;;;0.50;99.90;;;;;;4883561;29;19911;-95
2023/12/10 18:54:27;;;;;;;;;;;0.50;99.90;;;;;;4882704;29;19912;-95
2023/12/10 18:56:54;;;;;;;;;;;0.50;99.90;;;;;;4882859;29;19968;-96
2023/12/10 18:59:21;;;;;;;;;;;0.50;99.90;;;;;;4869450;29;20383;-94
2023/12/10 19:01:46;;;;;;;;;;;0.50;99.90;;;;;;4864001;29;19918;-96
2023/12/10 19:04:12;;;;;;;;;;;0.50;99.90;;;;;;4864941;29;19912;-96
2023/12/10 19:06:38;;;;;;;;;;;0.50;99.90;;;;;;4864627;29;19947;-95
2023/12/10 19:09:04;;;;;;;;;;;0.50;99.90;;;;;;4864106;29;19958;-95
2023/12/10 19:11:29;;;;;;;;;;;0.50;99.90;;;;;;4852173;29;19924;-94
2023/12/10 19:13:55;;;;;;;;;;;0.50;99.90;;;;;;4863851;29;19959;-95
2023/12/10 19:16:20;;;;;;;;;;;0.50;99.90;;;;;;4864147;29;19912;-95
2023/12/10 19:18:46;;;;;;;;;;;0.50;99.90;;;;;;4865414;29;19915;-94
2023/12/10 19:21:12;;;;;;;;;;;0.50;99.90;;;;;;4865662;29;20475;-96
2023/12/10 19:23:37;;;;;;;;;;;0.50;99.90;;;;;;4864518;29;20319;-94
2023/12/10 19:26:03;;;;;;;;;;;0.50;99.90;;;;;;4865436;29;19911;-96
2023/12/10 19:28:29;;;;;;;;;;;0.50;99.90;;;;;;4867171;29;19969;-95
2023/12/10 19:30:55;;;;;;;;;;;0.50;99.90;;;;;;4867046;29;20032;-94
